sensor_id;sensor_type;location;lat;lon;timestamp;temperature;humidity
11387;DHT22;5748;53.102;8.456;2022-09-09T00:01:07;18.20;65.70
11387;DHT22;5748;53.102;8.456;2022-09-09T00:03:42;18.20;66.10
11387;DHT22;5748;53.102;8.456;2022-09-09T00:06:19;18.20;66.00
11387;DHT22;5748;53.102;8.456;2022-09-09T00:08:57;18.10;65.90
11387;DHT22;5748;53.102;8.456;2022-09-09T00:11:33;18.10;65.90
11387;DHT22;5748;53.102;8.456;2022-09-09T00:14:15;18.10;65.80
11387;DHT22;5748;53.102;8.456;2022-09-09T00:17:07;18.00;65.80
11387;DHT22;5748;53.102;8.456;2022-09-09T00:19:43;18.00;66.10
11387;DHT22;5748;53.102;8.456;2022-09-09T00:22:18;18.00;65.80
11387;DHT22;5748;53.102;8.456;2022-09-09T00:24:49;18.00;65.70
11387;DHT22;5748;53.102;8.456;2022-09-09T00:27:24;17.90;65.70
11387;DHT22;5748;53.102;8.456;2022-09-09T00:29:58;17.90;65.90
11387;DHT22;5748;53.102;8.456;2022-09-09T00:32:30;17.80;65.70
11387;DHT22;5748;53.102;8.456;2022-09-09T00:35:11;17.80;65.80
11387;DHT22;5748;53.102;8.456;2022-09-09T00:37:44;17.80;65.90
11387;DHT22;5748;53.102;8.456;2022-09-09T00:40:22;17.70;65.60
11387;DHT22;5748;53.102;8.456;2022-09-09T00:43:16;17.70;65.90
11387;DHT22;5748;53.102;8.456;2022-09-09T00:49:15;17.70;66.40
11387;DHT22;5748;53.102;8.456;2022-09-09T00:51:57;17.60;66.10
11387;DHT22;5748;53.102;8.456;2022-09-09T00:55:03;17.60;66.10
11387;DHT22;5748;53.102;8.456;2022-09-09T00:57:52;17.60;66.60
11387;DHT22;5748;53.102;8.456;2022-09-09T01:00:22;17.60;66.70
11387;DHT22;5748;53.102;8.456;2022-09-09T01:03:05;17.60;66.30
11387;DHT22;5748;53.102;8.456;2022-09-09T01:05:43;17.60;66.90
11387;DHT22;5748;53.102;8.456;2022-09-09T01:08:27;17.60;66.80
11387;DHT22;5748;53.102;8.456;2022-09-09T01:11:01;17.60;67.10
11387;DHT22;5748;53.102;8.456;2022-09-09T01:13:30;17.70;66.90
11387;DHT22;5748;53.102;8.456;2022-09-09T01:16:00;17.60;67.10
11387;DHT22;5748;53.102;8.456;2022-09-09T01:18:33;17.70;67.20
11387;DHT22;5748;53.102;8.456;2022-09-09T01:21:22;17.80;67.40
11387;DHT22;5748;53.102;8.456;2022-09-09T01:24:15;17.80;67.80
11387;DHT22;5748;53.102;8.456;2022-09-09T01:26:50;17.80;67.80
11387;DHT22;5748;53.102;8.456;2022-09-09T01:29:19;17.80;67.20
11387;DHT22;5748;53.102;8.456;2022-09-09T01:31:55;17.80;67.10
11387;DHT22;5748;53.102;8.456;2022-09-09T01:34:25;17.80;67.20
11387;DHT22;5748;53.102;8.456;2022-09-09T01:36:59;17.80;66.90
11387;DHT22;5748;53.102;8.456;2022-09-09T01:39:32;17.80;67.00
11387;DHT22;5748;53.102;8.456;2022-09-09T01:42:02;17.90;66.90
11387;DHT22;5748;53.102;8.456;2022-09-09T01:44:31;17.80;66.90
11387;DHT22;5748;53.102;8.456;2022-09-09T01:46:58;17.80;67.00
11387;DHT22;5748;53.102;8.456;2022-09-09T01:49:25;17.80;67.00
11387;DHT22;5748;53.102;8.456;2022-09-09T01:51:55;17.90;67.20
11387;DHT22;5748;53.102;8.456;2022-09-09T01:54:25;17.90;67.20
11387;DHT22;5748;53.102;8.456;2022-09-09T01:57:00;17.90;67.10
11387;DHT22;5748;53.102;8.456;2022-09-09T01:59:45;17.90;67.40
11387;DHT22;5748;53.102;8.456;2022-09-09T02:02:18;17.80;67.10
11387;DHT22;5748;53.102;8.456;2022-09-09T02:04:47;17.90;66.80
11387;DHT22;5748;53.102;8.456;2022-09-09T02:07:34;17.80;66.60
11387;DHT22;5748;53.102;8.456;2022-09-09T02:10:09;17.80;67.00
11387;DHT22;5748;53.102;8.456;2022-09-09T02:12:42;17.80;66.60
11387;DHT22;5748;53.102;8.456;2022-09-09T02:15:19;17.80;66.60
11387;DHT22;5748;53.102;8.456;2022-09-09T02:17:50;17.80;66.70
11387;DHT22;5748;53.102;8.456;2022-09-09T02:20:19;17.80;66.60
11387;DHT22;5748;53.102;8.456;2022-09-09T02:22:49;17.70;66.50
11387;DHT22;5748;53.102;8.456;2022-09-09T02:25:19;17.70;66.60
11387;DHT22;5748;53.102;8.456;2022-09-09T02:27:50;17.70;66.60
11387;DHT22;5748;53.102;8.456;2022-09-09T02:30:20;17.70;66.60
11387;DHT22;5748;53.102;8.456;2022-09-09T02:32:50;17.70;66.60
11387;DHT22;5748;53.102;8.456;2022-09-09T02:35:20;17.70;66.60
11387;DHT22;5748;53.102;8.456;2022-09-09T02:37:51;17.60;66.40
11387;DHT22;5748;53.102;8.456;2022-09-09T02:40:20;17.60;66.30
11387;DHT22;5748;53.102;8.456;2022-09-09T02:43:04;17.60;66.20
11387;DHT22;5748;53.102;8.456;2022-09-09T02:45:36;17.60;66.80
11387;DHT22;5748;53.102;8.456;2022-09-09T02:48:12;17.50;66.30
11387;DHT22;5748;53.102;8.456;2022-09-09T02:50:48;17.50;66.30
11387;DHT22;5748;53.102;8.456;2022-09-09T02:53:24;17.50;67.10
11387;DHT22;5748;53.102;8.456;2022-09-09T02:56:10;17.30;66.10
11387;DHT22;5748;53.102;8.456;2022-09-09T02:58:42;17.40;66.50
11387;DHT22;5748;53.102;8.456;2022-09-09T03:01:09;17.40;66.20
11387;DHT22;5748;53.102;8.456;2022-09-09T03:03:48;17.30;66.20
11387;DHT22;5748;53.102;8.456;2022-09-09T03:06:15;17.30;66.70
11387;DHT22;5748;53.102;8.456;2022-09-09T03:08:42;17.20;66.40
11387;DHT22;5748;53.102;8.456;2022-09-09T03:11:09;17.40;66.70
11387;DHT22;5748;53.102;8.456;2022-09-09T03:13:36;17.30;66.80
11387;DHT22;5748;53.102;8.456;2022-09-09T03:16:05;17.30;66.90
11387;DHT22;5748;53.102;8.456;2022-09-09T03:18:32;17.30;67.10
11387;DHT22;5748;53.102;8.456;2022-09-09T03:21:00;17.30;67.20
11387;DHT22;5748;53.102;8.456;2022-09-09T03:23:29;17.30;67.20
11387;DHT22;5748;53.102;8.456;2022-09-09T03:25:56;17.40;67.60
11387;DHT22;5748;53.102;8.456;2022-09-09T03:28:24;17.40;67.60
11387;DHT22;5748;53.102;8.456;2022-09-09T03:30:58;17.40;67.80
11387;DHT22;5748;53.102;8.456;2022-09-09T03:33:27;17.50;68.00
11387;DHT22;5748;53.102;8.456;2022-09-09T03:35:55;17.50;68.00
11387;DHT22;5748;53.102;8.456;2022-09-09T03:38:23;17.60;68.20
11387;DHT22;5748;53.102;8.456;2022-09-09T03:40:58;17.50;68.10
11387;DHT22;5748;53.102;8.456;2022-09-09T03:43:26;17.60;68.50
11387;DHT22;5748;53.102;8.456;2022-09-09T03:45:54;17.60;68.20
11387;DHT22;5748;53.102;8.456;2022-09-09T03:48:22;17.70;68.40
11387;DHT22;5748;53.102;8.456;2022-09-09T03:50:52;17.70;68.40
11387;DHT22;5748;53.102;8.456;2022-09-09T03:53:22;17.80;68.60
11387;DHT22;5748;53.102;8.456;2022-09-09T03:55:52;17.80;68.50
11387;DHT22;5748;53.102;8.456;2022-09-09T03:58:22;17.80;68.40
11387;DHT22;5748;53.102;8.456;2022-09-09T04:00:56;17.90;68.60
11387;DHT22;5748;53.102;8.456;2022-09-09T04:03:24;17.90;68.70
11387;DHT22;5748;53.102;8.456;2022-09-09T04:05:53;17.90;68.50
11387;DHT22;5748;53.102;8.456;2022-09-09T04:08:21;18.00;68.50
11387;DHT22;5748;53.102;8.456;2022-09-09T04:10:51;18.00;68.40
11387;DHT22;5748;53.102;8.456;2022-09-09T04:13:20;18.00;68.40
11387;DHT22;5748;53.102;8.456;2022-09-09T04:15:57;18.00;68.40
11387;DHT22;5748;53.102;8.456;2022-09-09T04:18:25;18.00;68.70
11387;DHT22;5748;53.102;8.456;2022-09-09T04:20:55;18.10;68.30
11387;DHT22;5748;53.102;8.456;2022-09-09T04:23:24;18.10;68.30
11387;DHT22;5748;53.102;8.456;2022-09-09T04:26:14;18.10;68.30
11387;DHT22;5748;53.102;8.456;2022-09-09T04:28:59;18.10;68.80
11387;DHT22;5748;53.102;8.456;2022-09-09T04:31:26;18.00;68.60
11387;DHT22;5748;53.102;8.456;2022-09-09T04:34:00;18.10;68.10
11387;DHT22;5748;53.102;8.456;2022-09-09T04:36:33;18.10;68.30
11387;DHT22;5748;53.102;8.456;2022-09-09T04:39:00;18.10;68.00
11387;DHT22;5748;53.102;8.456;2022-09-09T04:41:33;18.00;67.80
11387;DHT22;5748;53.102;8.456;2022-09-09T04:44:15;18.00;68.00
11387;DHT22;5748;53.102;8.456;2022-09-09T04:46:42;18.00;68.10
11387;DHT22;5748;53.102;8.456;2022-09-09T04:49:11;18.00;67.60
11387;DHT22;5748;53.102;8.456;2022-09-09T04:51:39;18.00;67.50
11387;DHT22;5748;53.102;8.456;2022-09-09T04:54:06;18.10;67.50
11387;DHT22;5748;53.102;8.456;2022-09-09T04:56:34;17.90;67.30
11387;DHT22;5748;53.102;8.456;2022-09-09T04:59:01;17.90;67.40
11387;DHT22;5748;53.102;8.456;2022-09-09T05:01:29;17.80;67.20
11387;DHT22;5748;53.102;8.456;2022-09-09T05:03:57;17.80;67.20
11387;DHT22;5748;53.102;8.456;2022-09-09T05:06:25;17.80;67.30
11387;DHT22;5748;53.102;8.456;2022-09-09T05:08:53;17.80;67.30
11387;DHT22;5748;53.102;8.456;2022-09-09T05:11:22;17.70;67.40
11387;DHT22;5748;53.102;8.456;2022-09-09T05:13:51;17.70;67.60
11387;DHT22;5748;53.102;8.456;2022-09-09T05:16:20;17.70;67.50
11387;DHT22;5748;53.102;8.456;2022-09-09T05:18:49;17.70;67.60
11387;DHT22;5748;53.102;8.456;2022-09-09T05:21:18;17.70;67.60
11387;DHT22;5748;53.102;8.456;2022-09-09T05:23:46;17.70;67.70
11387;DHT22;5748;53.102;8.456;2022-09-09T05:26:17;17.60;67.70
11387;DHT22;5748;53.102;8.456;2022-09-09T05:28:46;17.60;67.90
11387;DHT22;5748;53.102;8.456;2022-09-09T05:31:15;17.60;68.10
11387;DHT22;5748;53.102;8.456;2022-09-09T05:33:46;17.60;68.20
11387;DHT22;5748;53.102;8.456;2022-09-09T05:36:16;17.60;68.50
11387;DHT22;5748;53.102;8.456;2022-09-09T05:38:44;17.70;68.70
11387;DHT22;5748;53.102;8.456;2022-09-09T05:41:12;17.70;68.80
11387;DHT22;5748;53.102;8.456;2022-09-09T05:43:43;17.80;69.00
11387;DHT22;5748;53.102;8.456;2022-09-09T05:46:12;17.80;69.20
11387;DHT22;5748;53.102;8.456;2022-09-09T05:48:41;17.80;69.20
11387;DHT22;5748;53.102;8.456;2022-09-09T05:51:11;17.90;69.30
11387;DHT22;5748;53.102;8.456;2022-09-09T05:53:42;17.90;69.20
11387;DHT22;5748;53.102;8.456;2022-09-09T05:56:11;18.00;69.20
11387;DHT22;5748;53.102;8.456;2022-09-09T05:58:40;18.00;69.10
11387;DHT22;5748;53.102;8.456;2022-09-09T06:01:11;18.10;69.10
11387;DHT22;5748;53.102;8.456;2022-09-09T06:03:40;18.10;69.00
11387;DHT22;5748;53.102;8.456;2022-09-09T06:06:10;18.10;68.90
11387;DHT22;5748;53.102;8.456;2022-09-09T06:08:40;18.20;69.00
11387;DHT22;5748;53.102;8.456;2022-09-09T06:11:11;18.20;69.00
11387;DHT22;5748;53.102;8.456;2022-09-09T06:13:43;19.30;70.10
11387;DHT22;5748;53.102;8.456;2022-09-09T06:16:13;18.10;69.00
11387;DHT22;5748;53.102;8.456;2022-09-09T06:18:44;18.20;69.00
11387;DHT22;5748;53.102;8.456;2022-09-09T06:21:15;18.20;69.20
11387;DHT22;5748;53.102;8.456;2022-09-09T06:23:44;18.30;69.50
11387;DHT22;5748;53.102;8.456;2022-09-09T06:26:13;18.30;69.50
11387;DHT22;5748;53.102;8.456;2022-09-09T06:28:44;18.40;69.70
11387;DHT22;5748;53.102;8.456;2022-09-09T06:31:14;18.40;69.80
11387;DHT22;5748;53.102;8.456;2022-09-09T06:33:43;18.50;69.90
11387;DHT22;5748;53.102;8.456;2022-09-09T06:36:12;18.50;69.80
11387;DHT22;5748;53.102;8.456;2022-09-09T06:38:40;18.60;70.00
11387;DHT22;5748;53.102;8.456;2022-09-09T06:41:08;18.60;70.00
11387;DHT22;5748;53.102;8.456;2022-09-09T06:43:36;18.70;70.20
11387;DHT22;5748;53.102;8.456;2022-09-09T06:46:06;18.70;70.20
11387;DHT22;5748;53.102;8.456;2022-09-09T06:48:35;18.80;70.50
11387;DHT22;5748;53.102;8.456;2022-09-09T06:51:04;18.90;70.60
11387;DHT22;5748;53.102;8.456;2022-09-09T06:53:33;19.00;70.70
11387;DHT22;5748;53.102;8.456;2022-09-09T06:56:01;19.10;70.70
11387;DHT22;5748;53.102;8.456;2022-09-09T06:58:29;19.20;70.50
11387;DHT22;5748;53.102;8.456;2022-09-09T07:01:11;19.20;70.30
11387;DHT22;5748;53.102;8.456;2022-09-09T07:03:45;19.30;70.50
11387;DHT22;5748;53.102;8.456;2022-09-09T07:06:38;19.40;70.20
11387;DHT22;5748;53.102;8.456;2022-09-09T07:09:09;19.40;70.30
11387;DHT22;5748;53.102;8.456;2022-09-09T07:11:39;19.50;70.00
11387;DHT22;5748;53.102;8.456;2022-09-09T07:14:07;19.60;70.10
11387;DHT22;5748;53.102;8.456;2022-09-09T07:16:36;19.60;70.00
11387;DHT22;5748;53.102;8.456;2022-09-09T07:19:04;19.70;70.00
11387;DHT22;5748;53.102;8.456;2022-09-09T07:21:32;19.70;70.00
11387;DHT22;5748;53.102;8.456;2022-09-09T07:24:00;19.80;70.10
11387;DHT22;5748;53.102;8.456;2022-09-09T07:26:28;19.80;70.10
11387;DHT22;5748;53.102;8.456;2022-09-09T07:28:56;19.90;70.20
11387;DHT22;5748;53.102;8.456;2022-09-09T07:31:39;20.00;70.30
11387;DHT22;5748;53.102;8.456;2022-09-09T07:34:11;20.00;70.30
11387;DHT22;5748;53.102;8.456;2022-09-09T07:36:39;20.10;70.30
11387;DHT22;5748;53.102;8.456;2022-09-09T07:39:10;20.20;70.30
11387;DHT22;5748;53.102;8.456;2022-09-09T07:41:41;20.20;70.40
11387;DHT22;5748;53.102;8.456;2022-09-09T07:44:10;20.30;70.50
11387;DHT22;5748;53.102;8.456;2022-09-09T07:46:41;20.40;70.50
11387;DHT22;5748;53.102;8.456;2022-09-09T07:49:09;20.50;70.70
11387;DHT22;5748;53.102;8.456;2022-09-09T07:51:38;20.60;70.50
11387;DHT22;5748;53.102;8.456;2022-09-09T07:54:08;20.70;70.50
11387;DHT22;5748;53.102;8.456;2022-09-09T07:56:41;20.80;70.60
11387;DHT22;5748;53.102;8.456;2022-09-09T07:59:23;20.90;70.50
11387;DHT22;5748;53.102;8.456;2022-09-09T08:02:04;20.90;70.40
11387;DHT22;5748;53.102;8.456;2022-09-09T08:04:35;21.10;70.60
11387;DHT22;5748;53.102;8.456;2022-09-09T08:07:02;21.20;70.70
11387;DHT22;5748;53.102;8.456;2022-09-09T08:09:29;21.30;70.70
11387;DHT22;5748;53.102;8.456;2022-09-09T08:12:02;21.40;70.80
11387;DHT22;5748;53.102;8.456;2022-09-09T08:14:52;21.50;70.80
11387;DHT22;5748;53.102;8.456;2022-09-09T08:17:27;21.70;70.70
11387;DHT22;5748;53.102;8.456;2022-09-09T08:19:54;21.80;70.80
11387;DHT22;5748;53.102;8.456;2022-09-09T08:22:33;22.00;71.20
11387;DHT22;5748;53.102;8.456;2022-09-09T08:25:00;22.10;70.50
11387;DHT22;5748;53.102;8.456;2022-09-09T08:27:31;22.30;70.80
11387;DHT22;5748;53.102;8.456;2022-09-09T08:29:58;22.50;71.00
11387;DHT22;5748;53.102;8.456;2022-09-09T08:32:27;22.60;70.90
11387;DHT22;5748;53.102;8.456;2022-09-09T08:34:54;22.80;71.40
11387;DHT22;5748;53.102;8.456;2022-09-09T08:37:21;22.90;71.90
11387;DHT22;5748;53.102;8.456;2022-09-09T08:39:57;23.20;72.40
11387;DHT22;5748;53.102;8.456;2022-09-09T08:42:32;23.50;72.30
11387;DHT22;5748;53.102;8.456;2022-09-09T08:45:31;23.70;71.90
11387;DHT22;5748;53.102;8.456;2022-09-09T08:48:20;24.00;71.30
11387;DHT22;5748;53.102;8.456;2022-09-09T08:50:58;24.40;72.70
11387;DHT22;5748;53.102;8.456;2022-09-09T08:53:28;24.70;73.20
11387;DHT22;5748;53.102;8.456;2022-09-09T08:55:59;25.00;72.30
11387;DHT22;5748;53.102;8.456;2022-09-09T08:58:28;25.30;71.10
11387;DHT22;5748;53.102;8.456;2022-09-09T09:01:22;25.40;70.40
11387;DHT22;5748;53.102;8.456;2022-09-09T09:04:02;25.60;68.40
11387;DHT22;5748;53.102;8.456;2022-09-09T09:06:41;25.70;68.90
11387;DHT22;5748;53.102;8.456;2022-09-09T09:09:21;25.70;68.20
11387;DHT22;5748;53.102;8.456;2022-09-09T09:11:54;25.80;67.90
11387;DHT22;5748;53.102;8.456;2022-09-09T09:14:28;25.80;68.50
11387;DHT22;5748;53.102;8.456;2022-09-09T09:17:01;26.00;69.10
11387;DHT22;5748;53.102;8.456;2022-09-09T09:19:34;26.10;69.10
11387;DHT22;5748;53.102;8.456;2022-09-09T09:22:06;26.30;68.60
11387;DHT22;5748;53.102;8.456;2022-09-09T09:24:48;26.50;70.00
11387;DHT22;5748;53.102;8.456;2022-09-09T09:27:25;26.80;69.30
11387;DHT22;5748;53.102;8.456;2022-09-09T09:29:59;27.00;68.40
11387;DHT22;5748;53.102;8.456;2022-09-09T09:32:33;27.20;68.20
11387;DHT22;5748;53.102;8.456;2022-09-09T09:35:06;27.40;67.20
11387;DHT22;5748;53.102;8.456;2022-09-09T09:37:37;27.50;65.50
11387;DHT22;5748;53.102;8.456;2022-09-09T09:40:12;27.60;65.30
11387;DHT22;5748;53.102;8.456;2022-09-09T09:42:48;27.70;65.90
11387;DHT22;5748;53.102;8.456;2022-09-09T09:45:28;27.80;65.50
11387;DHT22;5748;53.102;8.456;2022-09-09T09:48:03;28.10;65.70
11387;DHT22;5748;53.102;8.456;2022-09-09T09:50:34;28.30;65.40
11387;DHT22;5748;53.102;8.456;2022-09-09T09:53:04;28.50;65.00
11387;DHT22;5748;53.102;8.456;2022-09-09T09:55:33;28.50;64.10
11387;DHT22;5748;53.102;8.456;2022-09-09T09:58:04;28.60;64.80
11387;DHT22;5748;53.102;8.456;2022-09-09T10:00:32;28.70;64.60
11387;DHT22;5748;53.102;8.456;2022-09-09T10:03:02;28.70;64.40
11387;DHT22;5748;53.102;8.456;2022-09-09T10:05:47;28.90;65.40
11387;DHT22;5748;53.102;8.456;2022-09-09T10:08:16;29.20;64.70
11387;DHT22;5748;53.102;8.456;2022-09-09T10:11:05;29.50;64.70
11387;DHT22;5748;53.102;8.456;2022-09-09T10:13:45;29.50;62.50
11387;DHT22;5748;53.102;8.456;2022-09-09T10:16:31;29.60;61.30
11387;DHT22;5748;53.102;8.456;2022-09-09T10:19:10;29.60;60.90
11387;DHT22;5748;53.102;8.456;2022-09-09T10:22:24;29.60;60.20
11387;DHT22;5748;53.102;8.456;2022-09-09T10:28:07;29.30;57.50
11387;DHT22;5748;53.102;8.456;2022-09-09T10:31:08;29.10;58.40
11387;DHT22;5748;53.102;8.456;2022-09-09T10:33:49;28.90;58.90
11387;DHT22;5748;53.102;8.456;2022-09-09T10:36:20;28.80;59.10
11387;DHT22;5748;53.102;8.456;2022-09-09T10:38:53;28.70;60.30
11387;DHT22;5748;53.102;8.456;2022-09-09T10:41:40;28.70;59.70
11387;DHT22;5748;53.102;8.456;2022-09-09T10:44:23;28.60;58.90
11387;DHT22;5748;53.102;8.456;2022-09-09T10:47:24;28.60;59.50
11387;DHT22;5748;53.102;8.456;2022-09-09T10:50:18;28.60;58.70
11387;DHT22;5748;53.102;8.456;2022-09-09T10:53:14;28.50;58.30
11387;DHT22;5748;53.102;8.456;2022-09-09T10:55:51;28.40;58.90
11387;DHT22;5748;53.102;8.456;2022-09-09T10:58:24;28.30;58.70
11387;DHT22;5748;53.102;8.456;2022-09-09T11:00:59;28.30;58.70
11387;DHT22;5748;53.102;8.456;2022-09-09T11:03:29;28.20;58.40
11387;DHT22;5748;53.102;8.456;2022-09-09T11:06:00;28.00;58.60
11387;DHT22;5748;53.102;8.456;2022-09-09T11:08:38;27.90;59.50
11387;DHT22;5748;53.102;8.456;2022-09-09T11:11:12;28.00;60.50
11387;DHT22;5748;53.102;8.456;2022-09-09T11:13:48;28.20;62.00
11387;DHT22;5748;53.102;8.456;2022-09-09T11:16:23;28.50;62.80
11387;DHT22;5748;53.102;8.456;2022-09-09T11:18:58;28.90;63.20
11387;DHT22;5748;53.102;8.456;2022-09-09T11:21:30;29.40;64.10
11387;DHT22;5748;53.102;8.456;2022-09-09T11:24:02;30.00;64.00
11387;DHT22;5748;53.102;8.456;2022-09-09T11:26:37;30.60;62.40
11387;DHT22;5748;53.102;8.456;2022-09-09T11:32:29;31.50;59.10
11387;DHT22;5748;53.102;8.456;2022-09-09T11:35:18;31.80;57.00
11387;DHT22;5748;53.102;8.456;2022-09-09T11:38:14;32.10;57.20
11387;DHT22;5748;53.102;8.456;2022-09-09T11:40:44;32.20;56.00
11387;DHT22;5748;53.102;8.456;2022-09-09T11:43:18;32.20;56.50
11387;DHT22;5748;53.102;8.456;2022-09-09T11:45:52;32.10;54.70
11387;DHT22;5748;53.102;8.456;2022-09-09T11:48:26;31.90;55.10
11387;DHT22;5748;53.102;8.456;2022-09-09T11:51:01;31.70;54.70
11387;DHT22;5748;53.102;8.456;2022-09-09T11:53:31;31.50;54.20
11387;DHT22;5748;53.102;8.456;2022-09-09T11:56:12;31.20;54.80
11387;DHT22;5748;53.102;8.456;2022-09-09T11:58:43;30.90;53.30
11387;DHT22;5748;53.102;8.456;2022-09-09T12:01:34;30.60;53.80
11387;DHT22;5748;53.102;8.456;2022-09-09T12:04:35;30.30;53.30
11387;DHT22;5748;53.102;8.456;2022-09-09T12:07:25;30.00;53.40
11387;DHT22;5748;53.102;8.456;2022-09-09T12:09:59;29.70;52.80
11387;DHT22;5748;53.102;8.456;2022-09-09T12:12:31;29.40;54.10
11387;DHT22;5748;53.102;8.456;2022-09-09T12:15:23;29.10;54.60
11387;DHT22;5748;53.102;8.456;2022-09-09T12:17:54;28.70;52.90
11387;DHT22;5748;53.102;8.456;2022-09-09T12:20:26;28.50;54.20
11387;DHT22;5748;53.102;8.456;2022-09-09T12:23:18;28.20;54.50
11387;DHT22;5748;53.102;8.456;2022-09-09T12:26:06;27.90;54.20
11387;DHT22;5748;53.102;8.456;2022-09-09T12:28:56;27.70;54.80
11387;DHT22;5748;53.102;8.456;2022-09-09T12:31:34;27.50;55.70
11387;DHT22;5748;53.102;8.456;2022-09-09T12:34:11;27.40;57.20
11387;DHT22;5748;53.102;8.456;2022-09-09T12:36:42;27.50;58.60
11387;DHT22;5748;53.102;8.456;2022-09-09T12:39:31;27.70;59.30
11387;DHT22;5748;53.102;8.456;2022-09-09T12:42:01;28.00;57.70
11387;DHT22;5748;53.102;8.456;2022-09-09T12:44:30;28.20;58.00
11387;DHT22;5748;53.102;8.456;2022-09-09T12:47:01;28.30;57.10
11387;DHT22;5748;53.102;8.456;2022-09-09T12:49:32;28.40;56.20
11387;DHT22;5748;53.102;8.456;2022-09-09T12:52:03;28.40;56.00
11387;DHT22;5748;53.102;8.456;2022-09-09T12:54:35;28.30;55.80
11387;DHT22;5748;53.102;8.456;2022-09-09T12:57:02;28.20;55.00
11387;DHT22;5748;53.102;8.456;2022-09-09T12:59:36;28.00;55.00
11387;DHT22;5748;53.102;8.456;2022-09-09T13:02:18;27.80;54.60
11387;DHT22;5748;53.102;8.456;2022-09-09T13:04:47;27.60;54.40
11387;DHT22;5748;53.102;8.456;2022-09-09T13:07:16;27.40;54.80
11387;DHT22;5748;53.102;8.456;2022-09-09T13:09:44;27.10;55.00
11387;DHT22;5748;53.102;8.456;2022-09-09T13:12:15;26.80;55.20
11387;DHT22;5748;53.102;8.456;2022-09-09T13:14:45;26.50;55.30
11387;DHT22;5748;53.102;8.456;2022-09-09T13:17:21;26.30;55.50
11387;DHT22;5748;53.102;8.456;2022-09-09T13:19:50;26.00;55.80
11387;DHT22;5748;53.102;8.456;2022-09-09T13:22:22;25.80;55.80
11387;DHT22;5748;53.102;8.456;2022-09-09T13:25:02;25.50;56.00
11387;DHT22;5748;53.102;8.456;2022-09-09T13:27:33;25.20;56.20
11387;DHT22;5748;53.102;8.456;2022-09-09T13:30:20;25.00;56.40
11387;DHT22;5748;53.102;8.456;2022-09-09T13:33:02;24.80;56.80
11387;DHT22;5748;53.102;8.456;2022-09-09T13:36:04;24.60;56.80
11387;DHT22;5748;53.102;8.456;2022-09-09T13:38:35;24.40;56.70
11387;DHT22;5748;53.102;8.456;2022-09-09T13:41:04;24.20;56.50
11387;DHT22;5748;53.102;8.456;2022-09-09T13:43:36;24.10;56.70
11387;DHT22;5748;53.102;8.456;2022-09-09T13:46:05;23.90;56.90
11387;DHT22;5748;53.102;8.456;2022-09-09T13:48:57;23.80;57.10
11387;DHT22;5748;53.102;8.456;2022-09-09T13:51:34;23.70;57.50
11387;DHT22;5748;53.102;8.456;2022-09-09T13:54:04;23.50;57.50
11387;DHT22;5748;53.102;8.456;2022-09-09T13:56:32;23.50;57.50
11387;DHT22;5748;53.102;8.456;2022-09-09T13:59:01;23.40;57.60
11387;DHT22;5748;53.102;8.456;2022-09-09T14:01:28;23.30;57.70
11387;DHT22;5748;53.102;8.456;2022-09-09T14:03:57;23.20;57.60
11387;DHT22;5748;53.102;8.456;2022-09-09T14:06:24;23.20;57.90
11387;DHT22;5748;53.102;8.456;2022-09-09T14:08:52;23.10;57.70
11387;DHT22;5748;53.102;8.456;2022-09-09T14:11:20;23.00;57.80
11387;DHT22;5748;53.102;8.456;2022-09-09T14:13:48;22.90;58.00
11387;DHT22;5748;53.102;8.456;2022-09-09T14:16:18;22.90;58.20
11387;DHT22;5748;53.102;8.456;2022-09-09T14:18:46;22.80;58.30
11387;DHT22;5748;53.102;8.456;2022-09-09T14:21:21;22.80;58.10
11387;DHT22;5748;53.102;8.456;2022-09-09T14:23:48;22.70;58.50
11387;DHT22;5748;53.102;8.456;2022-09-09T14:26:16;22.60;58.10
11387;DHT22;5748;53.102;8.456;2022-09-09T14:28:52;22.60;58.20
11387;DHT22;5748;53.102;8.456;2022-09-09T14:31:19;22.50;58.40
11387;DHT22;5748;53.102;8.456;2022-09-09T14:33:47;22.40;58.30
11387;DHT22;5748;53.102;8.456;2022-09-09T14:36:40;22.40;58.50
11387;DHT22;5748;53.102;8.456;2022-09-09T14:39:08;22.30;59.20
11387;DHT22;5748;53.102;8.456;2022-09-09T14:41:35;22.30;58.70
11387;DHT22;5748;53.102;8.456;2022-09-09T14:44:13;22.30;58.80
11387;DHT22;5748;53.102;8.456;2022-09-09T14:46:43;22.20;59.40
11387;DHT22;5748;53.102;8.456;2022-09-09T14:49:11;22.20;59.10
11387;DHT22;5748;53.102;8.456;2022-09-09T14:51:40;22.20;59.10
11387;DHT22;5748;53.102;8.456;2022-09-09T14:54:08;22.20;59.20
11387;DHT22;5748;53.102;8.456;2022-09-09T14:56:38;22.10;59.30
11387;DHT22;5748;53.102;8.456;2022-09-09T14:59:08;22.10;59.30
11387;DHT22;5748;53.102;8.456;2022-09-09T15:01:35;22.10;59.60
11387;DHT22;5748;53.102;8.456;2022-09-09T15:04:17;22.10;59.50
11387;DHT22;5748;53.102;8.456;2022-09-09T15:06:46;22.10;60.50
11387;DHT22;5748;53.102;8.456;2022-09-09T15:09:15;22.10;59.70
11387;DHT22;5748;53.102;8.456;2022-09-09T15:11:42;22.10;59.80
11387;DHT22;5748;53.102;8.456;2022-09-09T15:14:10;22.10;59.90
11387;DHT22;5748;53.102;8.456;2022-09-09T15:16:38;22.10;59.80
11387;DHT22;5748;53.102;8.456;2022-09-09T15:19:06;22.10;60.00
11387;DHT22;5748;53.102;8.456;2022-09-09T15:21:36;22.10;60.10
11387;DHT22;5748;53.102;8.456;2022-09-09T15:24:05;22.10;60.30
11387;DHT22;5748;53.102;8.456;2022-09-09T15:26:33;22.10;60.30
11387;DHT22;5748;53.102;8.456;2022-09-09T15:29:01;22.20;60.40
11387;DHT22;5748;53.102;8.456;2022-09-09T15:31:32;22.20;60.50
11387;DHT22;5748;53.102;8.456;2022-09-09T15:34:01;22.20;60.80
11387;DHT22;5748;53.102;8.456;2022-09-09T15:36:36;22.20;60.70
11387;DHT22;5748;53.102;8.456;2022-09-09T15:39:07;22.30;61.40
11387;DHT22;5748;53.102;8.456;2022-09-09T15:41:35;22.30;61.10
11387;DHT22;5748;53.102;8.456;2022-09-09T15:44:02;22.40;61.10
11387;DHT22;5748;53.102;8.456;2022-09-09T15:46:31;22.40;61.20
11387;DHT22;5748;53.102;8.456;2022-09-09T15:49:05;22.40;61.30
11387;DHT22;5748;53.102;8.456;2022-09-09T15:51:35;22.50;61.40
11387;DHT22;5748;53.102;8.456;2022-09-09T15:54:04;22.50;61.30
11387;DHT22;5748;53.102;8.456;2022-09-09T15:56:32;22.60;61.30
11387;DHT22;5748;53.102;8.456;2022-09-09T15:59:01;22.50;61.20
11387;DHT22;5748;53.102;8.456;2022-09-09T16:01:30;22.70;61.60
11387;DHT22;5748;53.102;8.456;2022-09-09T16:04:01;22.70;61.50
11387;DHT22;5748;53.102;8.456;2022-09-09T16:06:30;22.70;61.50
11387;DHT22;5748;53.102;8.456;2022-09-09T16:08:59;22.70;61.30
11387;DHT22;5748;53.102;8.456;2022-09-09T16:11:30;22.70;61.30
11387;DHT22;5748;53.102;8.456;2022-09-09T16:13:59;22.70;61.50
11387;DHT22;5748;53.102;8.456;2022-09-09T16:16:28;22.70;61.40
11387;DHT22;5748;53.102;8.456;2022-09-09T16:18:57;22.70;61.80
11387;DHT22;5748;53.102;8.456;2022-09-09T16:21:33;22.70;61.50
11387;DHT22;5748;53.102;8.456;2022-09-09T16:24:02;22.80;62.10
11387;DHT22;5748;53.102;8.456;2022-09-09T16:26:33;22.80;61.70
11387;DHT22;5748;53.102;8.456;2022-09-09T16:29:02;22.80;61.80
11387;DHT22;5748;53.102;8.456;2022-09-09T16:31:30;22.80;61.60
11387;DHT22;5748;53.102;8.456;2022-09-09T16:33:57;22.80;61.50